Time;durP1;ratioP1;P1;durP2;ratioP2;P2;SDS_P1;SDS_P2;PMS_P1;PMS_P2;Temp;Humidity;BMP_temperature;BMP_pressure;BME280_temperature;BME280_humidity;BME280_pressure;Samples;Min_cycle;Max_cycle;Signal;HPM_P1;HPM_P2
2022/03/26 00:00:28;;;;;;;;;;;10.80;51.80;;;;;;5028058;28;87363;-51
2022/03/26 00:02:54;;;;;;;;;;;10.80;51.70;;;;;;5030087;28;87095;-50
2022/03/26 00:05:20;;;;;;;;;;;10.80;51.80;;;;;;5028473;28;86518;-50
2022/03/26 00:07:46;;;;;;;;;;;10.80;51.80;;;;;;5027617;28;87293;-51
2022/03/26 00:10:12;;;;;;;;;;;10.80;51.70;;;;;;5027335;28;88704;-51
2022/03/26 00:12:39;;;;;;;;;;;10.80;51.80;;;;;;5027265;28;87845;-50
2022/03/26 00:15:05;;;;;;;;;;;10.70;51.80;;;;;;5027869;28;87993;-50
2022/03/26 00:17:32;;;;;;;;;;;10.70;51.90;;;;;;5027030;28;88894;-51
2022/03/26 00:19:57;;;;;;;;;;;10.70;51.80;;;;;;5027748;28;86849;-51
2022/03/26 00:22:23;;;;;;;;;;;10.70;51.90;;;;;;5030287;28;87061;-52
2022/03/26 00:24:49;;;;;;;;;;;10.60;51.90;;;;;;5027551;28;87196;-51
2022/03/26 00:27:15;;;;;;;;;;;10.60;51.90;;;;;;5027676;28;87693;-50
2022/03/26 00:29:41;;;;;;;;;;;10.60;51.80;;;;;;5028045;28;86884;-52
2022/03/26 00:32:07;;;;;;;;;;;10.60;51.80;;;;;;5027854;28;87112;-53
2022/03/26 00:34:33;;;;;;;;;;;10.50;51.80;;;;;;5026391;28;87178;-51
2022/03/26 00:36:59;;;;;;;;;;;10.50;51.90;;;;;;5026593;28;88528;-51
2022/03/26 00:39:25;;;;;;;;;;;10.50;52.00;;;;;;5026518;28;86924;-52
2022/03/26 00:41:51;;;;;;;;;;;10.50;51.90;;;;;;5026442;28;87191;-55
2022/03/26 00:44:18;;;;;;;;;;;10.50;52.10;;;;;;5029908;28;88470;-52
2022/03/26 00:46:46;;;;;;;;;;;10.50;52.00;;;;;;5027441;28;87959;-50
2022/03/26 00:49:13;;;;;;;;;;;10.40;51.90;;;;;;5027032;28;88686;-51
2022/03/26 00:51:38;;;;;;;;;;;10.40;52.10;;;;;;5027352;28;86807;-51
2022/03/26 00:54:04;;;;;;;;;;;10.40;52.00;;;;;;5027773;28;87937;-51
2022/03/26 00:56:30;;;;;;;;;;;10.40;52.00;;;;;;5026874;28;88610;-52
2022/03/26 00:58:56;;;;;;;;;;;10.40;51.90;;;;;;5027249;28;87054;-52
2022/03/26 01:01:21;;;;;;;;;;;10.40;52.60;;;;;;5026877;28;87843;-51
2022/03/26 01:03:47;;;;;;;;;;;10.30;52.00;;;;;;5026768;28;88502;-51
2022/03/26 01:06:14;;;;;;;;;;;10.30;51.90;;;;;;5028896;28;86975;-51
2022/03/26 01:08:39;;;;;;;;;;;10.30;52.00;;;;;;5025673;28;87653;-50
2022/03/26 01:11:05;;;;;;;;;;;10.30;52.00;;;;;;5026806;28;87121;-51
2022/03/26 01:13:32;;;;;;;;;;;10.30;52.00;;;;;;5027216;28;87072;-51
2022/03/26 01:15:58;;;;;;;;;;;10.30;51.90;;;;;;5026552;28;88448;-50
2022/03/26 01:18:24;;;;;;;;;;;10.20;52.00;;;;;;5027376;28;86110;-53
2022/03/26 01:20:50;;;;;;;;;;;10.20;52.00;;;;;;5025829;28;86907;-50
2022/03/26 01:23:19;;;;;;;;;;;10.20;51.80;;;;;;5025825;28;88605;-50
2022/03/26 01:25:45;;;;;;;;;;;10.20;51.80;;;;;;5026269;28;87837;-50
2022/03/26 01:28:11;;;;;;;;;;;10.20;51.70;;;;;;5029318;28;88813;-50
2022/03/26 01:30:37;;;;;;;;;;;10.20;51.80;;;;;;5026823;28;86858;-50
2022/03/26 01:33:02;;;;;;;;;;;10.20;51.80;;;;;;5026634;28;88029;-50
2022/03/26 01:35:28;;;;;;;;;;;10.10;51.90;;;;;;5026577;28;87663;-51
2022/03/26 01:37:54;;;;;;;;;;;10.10;51.80;;;;;;5026480;28;87045;-50
2022/03/26 01:40:19;;;;;;;;;;;10.10;51.90;;;;;;5026479;28;87806;-53
2022/03/26 01:42:45;;;;;;;;;;;10.10;52.50;;;;;;5026667;28;87489;-52
2022/03/26 01:45:12;;;;;;;;;;;10.00;51.90;;;;;;5026592;28;87374;-51
2022/03/26 01:47:38;;;;;;;;;;;10.00;52.00;;;;;;5026422;28;87784;-50
2022/03/26 01:50:05;;;;;;;;;;;10.00;51.90;;;;;;5027056;28;89495;-51
2022/03/26 01:52:30;;;;;;;;;;;10.00;51.80;;;;;;5026357;28;89296;-50
2022/03/26 01:54:57;;;;;;;;;;;10.00;52.00;;;;;;5025142;28;87574;-50
2022/03/26 01:57:24;;;;;;;;;;;9.90;51.80;;;;;;5026267;28;87140;-51
2022/03/26 01:59:50;;;;;;;;;;;9.90;51.70;;;;;;5025744;28;86894;-53
2022/03/26 02:02:15;;;;;;;;;;;9.90;51.80;;;;;;5025888;28;88664;-53
2022/03/26 02:04:41;;;;;;;;;;;9.90;51.90;;;;;;5026273;28;86856;-50
2022/03/26 02:07:07;;;;;;;;;;;9.90;51.80;;;;;;5025723;28;88098;-51
2022/03/26 02:09:35;;;;;;;;;;;9.90;51.80;;;;;;5025924;28;87494;-52
2022/03/26 02:12:03;;;;;;;;;;;9.90;52.00;;;;;;5028973;28;87096;-50
2022/03/26 02:14:29;;;;;;;;;;;9.80;52.00;;;;;;5024491;28;89482;-51
2022/03/26 02:16:55;;;;;;;;;;;9.80;52.10;;;;;;5025188;28;87091;-54
2022/03/26 02:19:22;;;;;;;;;;;9.80;52.10;;;;;;5026064;28;88086;-51
2022/03/26 02:21:49;;;;;;;;;;;9.80;52.00;;;;;;5025769;28;87379;-52
2022/03/26 02:24:14;;;;;;;;;;;9.80;51.90;;;;;;5025974;28;86898;-50
2022/03/26 02:26:40;;;;;;;;;;;9.70;51.90;;;;;;5025993;28;88367;-53
2022/03/26 02:29:10;;;;;;;;;;;9.70;52.00;;;;;;5025929;28;87731;-54
2022/03/26 02:31:36;;;;;;;;;;;9.70;52.10;;;;;;5027987;28;86428;-53
2022/03/26 02:34:03;;;;;;;;;;;9.70;52.10;;;;;;5025706;28;87668;-50
2022/03/26 02:36:28;;;;;;;;;;;9.60;52.00;;;;;;5029428;28;86923;-50
2022/03/26 02:38:54;;;;;;;;;;;9.60;52.00;;;;;;5029128;28;87982;-50
2022/03/26 02:41:20;;;;;;;;;;;9.60;52.10;;;;;;5029053;28;88466;-51
2022/03/26 02:43:45;;;;;;;;;;;9.60;51.80;;;;;;5029250;28;86970;-50
2022/03/26 02:46:11;;;;;;;;;;;9.60;52.00;;;;;;5028978;28;87883;-51
2022/03/26 02:48:39;;;;;;;;;;;9.60;51.90;;;;;;5029151;28;87479;-50
2022/03/26 02:51:05;;;;;;;;;;;9.60;52.10;;;;;;5028043;28;86973;-51
2022/03/26 02:53:31;;;;;;;;;;;9.50;52.30;;;;;;5032061;28;87016;-54
2022/03/26 02:55:57;;;;;;;;;;;9.50;51.90;;;;;;5029942;28;86382;-50
2022/03/26 02:58:23;;;;;;;;;;;9.50;52.00;;;;;;5028375;28;87012;-52
2022/03/26 03:00:49;;;;;;;;;;;9.50;52.10;;;;;;5029021;28;87508;-50
2022/03/26 03:03:15;;;;;;;;;;;9.40;52.00;;;;;;5028321;28;87805;-50
2022/03/26 03:05:41;;;;;;;;;;;9.40;52.00;;;;;;5028953;28;88698;-50
2022/03/26 03:08:06;;;;;;;;;;;9.40;51.90;;;;;;5028247;28;88459;-50
2022/03/26 03:10:32;;;;;;;;;;;9.40;52.10;;;;;;5028018;28;87188;-50
2022/03/26 03:12:59;;;;;;;;;;;9.40;52.20;;;;;;5028847;28;87794;-52
2022/03/26 03:15:25;;;;;;;;;;;9.30;52.10;;;;;;5031455;28;88540;-50
2022/03/26 03:17:51;;;;;;;;;;;9.30;52.00;;;;;;5028855;28;87930;-50
2022/03/26 03:20:17;;;;;;;;;;;9.30;52.00;;;;;;5028863;28;87747;-49
2022/03/26 03:22:43;;;;;;;;;;;9.30;51.90;;;;;;5028797;28;87049;-50
2022/03/26 03:25:09;;;;;;;;;;;9.30;52.10;;;;;;5028718;28;86913;-50
2022/03/26 03:27:35;;;;;;;;;;;9.30;52.00;;;;;;5027312;28;88458;-53
2022/03/26 03:30:01;;;;;;;;;;;9.20;52.00;;;;;;5028799;28;87129;-51
2022/03/26 03:32:28;;;;;;;;;;;9.20;52.20;;;;;;5027764;28;87051;-50
2022/03/26 03:34:53;;;;;;;;;;;9.20;51.90;;;;;;5027556;28;86790;-50
2022/03/26 03:37:19;;;;;;;;;;;9.20;51.90;;;;;;5031359;28;86875;-51
2022/03/26 03:39:45;;;;;;;;;;;9.20;52.00;;;;;;5026786;28;87965;-52
2022/03/26 03:42:11;;;;;;;;;;;9.20;52.10;;;;;;5028455;28;86872;-51
2022/03/26 03:44:37;;;;;;;;;;;9.10;52.00;;;;;;5028886;28;87100;-52
2022/03/26 03:47:03;;;;;;;;;;;9.10;51.90;;;;;;5027619;28;87713;-52
2022/03/26 03:49:31;;;;;;;;;;;9.10;51.90;;;;;;5028278;28;86892;-50
2022/03/26 03:52:00;;;;;;;;;;;9.10;52.00;;;;;;5027674;28;87883;-52
2022/03/26 03:54:26;;;;;;;;;;;9.00;52.00;;;;;;5027833;28;88623;-50
2022/03/26 03:56:52;;;;;;;;;;;9.00;52.10;;;;;;5028183;28;87146;-51
2022/03/26 03:59:19;;;;;;;;;;;9.00;52.10;;;;;;5030664;28;87302;-50
2022/03/26 04:01:45;;;;;;;;;;;9.00;52.00;;;;;;5026961;28;87111;-54
2022/03/26 04:04:11;;;;;;;;;;;9.00;52.10;;;;;;5028126;28;87797;-54
2022/03/26 04:06:37;;;;;;;;;;;9.00;51.90;;;;;;5028001;28;87529;-53
2022/03/26 04:09:03;;;;;;;;;;;8.90;51.90;;;;;;5028192;28;86094;-51
2022/03/26 04:11:30;;;;;;;;;;;8.90;52.10;;;;;;5027938;28;87040;-50
2022/03/26 04:13:55;;;;;;;;;;;8.90;51.80;;;;;;5027569;28;87459;-51
2022/03/26 04:16:21;;;;;;;;;;;8.90;52.00;;;;;;5027233;28;87846;-50
2022/03/26 04:18:48;;;;;;;;;;;8.90;52.10;;;;;;5027864;28;88759;-52
2022/03/26 04:21:14;;;;;;;;;;;8.80;52.00;;;;;;5030273;28;88542;-50
2022/03/26 04:23:40;;;;;;;;;;;8.80;52.00;;;;;;5027781;28;88021;-50
2022/03/26 04:26:06;;;;;;;;;;;8.80;52.00;;;;;;5027439;28;87630;-51
2022/03/26 04:28:32;;;;;;;;;;;8.80;52.10;;;;;;5026582;28;87086;-51
2022/03/26 04:30:58;;;;;;;;;;;8.70;52.00;;;;;;5027954;28;86956;-51
2022/03/26 04:33:23;;;;;;;;;;;8.70;52.00;;;;;;5027756;28;88074;-51
2022/03/26 04:35:49;;;;;;;;;;;8.70;52.00;;;;;;5026959;28;86946;-50
2022/03/26 04:38:14;;;;;;;;;;;8.70;52.20;;;;;;5027907;28;86825;-50
2022/03/26 04:40:40;;;;;;;;;;;8.70;52.00;;;;;;5029393;28;89622;-51
2022/03/26 04:43:06;;;;;;;;;;;8.70;52.10;;;;;;5027802;28;87720;-51
2022/03/26 04:45:32;;;;;;;;;;;8.60;52.00;;;;;;5026988;28;88438;-50
2022/03/26 04:47:58;;;;;;;;;;;8.60;51.90;;;;;;5027406;28;86883;-51
2022/03/26 04:50:24;;;;;;;;;;;8.60;52.10;;;;;;5026068;28;88256;-53
2022/03/26 04:52:49;;;;;;;;;;;8.60;52.00;;;;;;5026976;28;88504;-51
2022/03/26 04:55:15;;;;;;;;;;;8.60;52.00;;;;;;5027285;28;87025;-51
2022/03/26 04:57:42;;;;;;;;;;;8.60;52.20;;;;;;5026737;28;86831;-52
2022/03/26 05:00:09;;;;;;;;;;;8.60;51.90;;;;;;5027211;28;87312;-50
2022/03/26 05:02:39;;;;;;;;;;;8.50;52.00;;;;;;5030432;28;86867;-50
2022/03/26 05:05:08;;;;;;;;;;;8.50;52.10;;;;;;5026080;28;89541;-52
2022/03/26 05:07:47;;;;;;;;;;;8.50;52.10;;;;;;5026682;28;86836;-54
2022/03/26 05:10:12;;;;;;;;;;;8.50;51.90;;;;;;5027073;28;87967;-50
2022/03/26 05:12:38;;;;;;;;;;;8.50;52.10;;;;;;5025330;28;88647;-50
2022/03/26 05:15:04;;;;;;;;;;;8.50;52.00;;;;;;5026962;28;86862;-51
2022/03/26 05:17:29;;;;;;;;;;;8.50;52.10;;;;;;5027022;28;86875;-49
2022/03/26 05:19:55;;;;;;;;;;;8.50;52.20;;;;;;5026487;28;88602;-51
2022/03/26 05:22:20;;;;;;;;;;;8.40;52.00;;;;;;5027289;28;86135;-51
2022/03/26 05:24:46;;;;;;;;;;;8.40;52.10;;;;;;5029728;28;87131;-50
2022/03/26 05:27:12;;;;;;;;;;;8.40;52.00;;;;;;5026874;28;87023;-50
2022/03/26 05:29:37;;;;;;;;;;;8.40;51.90;;;;;;5026138;28;88149;-54
2022/03/26 05:32:04;;;;;;;;;;;8.40;51.90;;;;;;5026566;28;87445;-52
2022/03/26 05:34:29;;;;;;;;;;;8.40;52.10;;;;;;5026654;28;87200;-50
2022/03/26 05:36:55;;;;;;;;;;;8.30;52.10;;;;;;5027119;28;87216;-51
2022/03/26 05:39:20;;;;;;;;;;;8.40;52.10;;;;;;5026277;28;88453;-50
2022/03/26 05:41:47;;;;;;;;;;;8.30;52.20;;;;;;5026879;28;86846;-52
2022/03/26 05:44:13;;;;;;;;;;;8.30;52.10;;;;;;5026571;28;87922;-50
2022/03/26 05:46:39;;;;;;;;;;;8.30;52.10;;;;;;5028643;28;86866;-53
2022/03/26 05:49:06;;;;;;;;;;;8.30;52.10;;;;;;5026766;28;86877;-50
2022/03/26 05:51:32;;;;;;;;;;;8.30;52.20;;;;;;5026028;28;87541;-52
2022/03/26 05:53:58;;;;;;;;;;;8.30;52.30;;;;;;5025658;28;87896;-50
2022/03/26 05:56:23;;;;;;;;;;;8.30;52.30;;;;;;5026440;28;88914;-51
2022/03/26 05:58:52;;;;;;;;;;;8.20;52.30;;;;;;5025001;28;87448;-51
2022/03/26 06:01:17;;;;;;;;;;;8.20;52.30;;;;;;5026655;28;86833;-50
2022/03/26 06:03:44;;;;;;;;;;;8.30;52.20;;;;;;5026593;28;86854;-50
2022/03/26 06:06:09;;;;;;;;;;;8.20;52.20;;;;;;5026157;28;86895;-53
2022/03/26 06:08:35;;;;;;;;;;;8.20;52.30;;;;;;5028896;28;87181;-51
2022/03/26 06:11:01;;;;;;;;;;;8.20;52.20;;;;;;5026478;28;86704;-50
2022/03/26 06:13:26;;;;;;;;;;;8.20;52.30;;;;;;5026202;28;86862;-50
2022/03/26 06:15:53;;;;;;;;;;;8.20;52.30;;;;;;5026401;28;86876;-50
2022/03/26 06:18:18;;;;;;;;;;;8.20;52.40;;;;;;5025011;28;88565;-51
2022/03/26 06:20:44;;;;;;;;;;;8.20;52.40;;;;;;5026040;28;87120;-52
2022/03/26 06:23:10;;;;;;;;;;;8.20;52.40;;;;;;5025516;28;87309;-52
2022/03/26 06:25:36;;;;;;;;;;;8.20;52.40;;;;;;5025484;28;87627;-51
2022/03/26 06:28:02;;;;;;;;;;;8.20;52.40;;;;;;5024845;28;86968;-51
2022/03/26 06:30:28;;;;;;;;;;;8.20;52.40;;;;;;5027534;28;87095;-52
2022/03/26 06:32:54;;;;;;;;;;;8.20;52.50;;;;;;5025808;28;86849;-54
2022/03/26 06:35:20;;;;;;;;;;;8.20;52.50;;;;;;5026356;28;87932;-51
2022/03/26 06:37:45;;;;;;;;;;;8.10;52.40;;;;;;5025413;28;88436;-53
2022/03/26 06:40:11;;;;;;;;;;;8.10;52.50;;;;;;5026121;28;87052;-50
2022/03/26 06:42:37;;;;;;;;;;;8.20;52.50;;;;;;5025083;28;87853;-50
2022/03/26 06:45:03;;;;;;;;;;;8.10;52.40;;;;;;5025558;28;87462;-51
2022/03/26 06:47:31;;;;;;;;;;;8.10;52.50;;;;;;5025100;28;87284;-50
2022/03/26 06:49:57;;;;;;;;;;;8.10;52.50;;;;;;5028228;28;87109;-51
2022/03/26 06:52:24;;;;;;;;;;;8.10;52.50;;;;;;5025572;28;86923;-50
2022/03/26 06:54:50;;;;;;;;;;;8.10;52.50;;;;;;5025712;28;87872;-51
2022/03/26 06:57:17;;;;;;;;;;;8.10;52.50;;;;;;5025197;28;88574;-51
2022/03/26 06:59:43;;;;;;;;;;;8.10;52.60;;;;;;5026171;28;86111;-52
2022/03/26 07:02:09;;;;;;;;;;;8.10;52.60;;;;;;5025531;28;87186;-53
2022/03/26 07:04:34;;;;;;;;;;;8.10;52.70;;;;;;5025160;28;88467;-50
2022/03/26 07:07:00;;;;;;;;;;;8.10;52.70;;;;;;5024814;28;87800;-53
2022/03/26 07:09:26;;;;;;;;;;;8.10;52.60;;;;;;5025137;28;88567;-49
2022/03/26 07:11:52;;;;;;;;;;;8.10;52.70;;;;;;5027934;28;87076;-50
2022/03/26 07:14:18;;;;;;;;;;;8.10;52.70;;;;;;5025694;28;86900;-50
2022/03/26 07:16:44;;;;;;;;;;;8.10;52.80;;;;;;5023589;28;88621;-50
2022/03/26 07:19:10;;;;;;;;;;;8.10;52.80;;;;;;5024238;28;87066;-50
2022/03/26 07:21:37;;;;;;;;;;;8.10;52.80;;;;;;5027768;28;87286;-53
2022/03/26 07:24:04;;;;;;;;;;;8.10;52.90;;;;;;5027426;28;86999;-51
2022/03/26 07:26:30;;;;;;;;;;;8.10;52.90;;;;;;5027952;28;86903;-50
2022/03/26 07:28:56;;;;;;;;;;;8.10;52.90;;;;;;5027743;28;87229;-52
2022/03/26 07:31:23;;;;;;;;;;;8.10;52.80;;;;;;5026197;28;88852;-53
2022/03/26 07:33:49;;;;;;;;;;;8.10;52.90;;;;;;5031523;28;86872;-50
2022/03/26 07:36:15;;;;;;;;;;;8.10;52.90;;;;;;5028240;28;88646;-50
2022/03/26 07:38:42;;;;;;;;;;;8.10;53.60;;;;;;5028969;28;86897;-50
2022/03/26 07:41:08;;;;;;;;;;;8.10;52.90;;;;;;5028516;28;87328;-50
2022/03/26 07:43:34;;;;;;;;;;;8.10;52.90;;;;;;5028059;28;88757;-51
2022/03/26 07:46:00;;;;;;;;;;;8.10;53.00;;;;;;5028401;28;86978;-50
2022/03/26 07:48:26;;;;;;;;;;;8.20;53.00;;;;;;5028920;28;88199;-53
2022/03/26 07:50:53;;;;;;;;;;;8.10;52.90;;;;;;5027770;28;88639;-53
2022/03/26 07:53:22;;;;;;;;;;;8.20;53.00;;;;;;5028172;28;87085;-51
2022/03/26 07:55:48;;;;;;;;;;;8.20;53.00;;;;;;5028873;28;87861;-51
2022/03/26 07:58:14;;;;;;;;;;;8.10;52.90;;;;;;5027402;28;86908;-50
2022/03/26 08:00:40;;;;;;;;;;;8.20;52.90;;;;;;5028118;28;87614;-52
2022/03/26 08:03:06;;;;;;;;;;;8.20;53.00;;;;;;5027754;28;87863;-51
2022/03/26 08:05:32;;;;;;;;;;;8.20;52.80;;;;;;5028409;28;86959;-50
2022/03/26 08:07:57;;;;;;;;;;;8.20;52.90;;;;;;5006486;28;86949;-51
2022/03/26 08:10:23;;;;;;;;;;;8.20;52.90;;;;;;5007767;28;87436;-51
2022/03/26 08:12:49;;;;;;;;;;;8.20;52.80;;;;;;4990646;28;86359;-50
2022/03/26 08:15:16;;;;;;;;;;;8.20;52.90;;;;;;5007994;28;86964;-50
2022/03/26 08:17:42;;;;;;;;;;;8.20;53.40;;;;;;5010379;28;88768;-49
2022/03/26 08:20:08;;;;;;;;;;;8.20;52.80;;;;;;5007245;28;87879;-50
2022/03/26 08:22:34;;;;;;;;;;;8.30;52.90;;;;;;5007366;28;88524;-50
2022/03/26 08:25:01;;;;;;;;;;;8.30;52.90;;;;;;4989966;28;87083;-50
2022/03/26 08:27:26;;;;;;;;;;;8.30;52.80;;;;;;5007747;28;87835;-49
2022/03/26 08:29:52;;;;;;;;;;;8.30;52.90;;;;;;5007525;28;86988;-52
2022/03/26 08:32:18;;;;;;;;;;;8.20;52.80;;;;;;4989588;28;87053;-52
2022/03/26 08:34:44;;;;;;;;;;;8.30;52.80;;;;;;5007817;28;87097;-52
2022/03/26 08:37:11;;;;;;;;;;;8.30;52.90;;;;;;5007614;28;87870;-49
2022/03/26 08:39:36;;;;;;;;;;;8.20;52.80;;;;;;5009748;28;86866;-50
2022/03/26 08:42:03;;;;;;;;;;;8.30;52.90;;;;;;5007322;28;87362;-49
2022/03/26 08:44:29;;;;;;;;;;;8.30;52.90;;;;;;5007107;28;87814;-49
2022/03/26 08:46:55;;;;;;;;;;;8.30;52.90;;;;;;5007204;28;88036;-52
2022/03/26 08:49:21;;;;;;;;;;;8.30;52.80;;;;;;5006942;28;88552;-49
2022/03/26 08:51:47;;;;;;;;;;;8.30;52.90;;;;;;5006815;28;86975;-50
2022/03/26 08:54:13;;;;;;;;;;;8.30;52.80;;;;;;5007284;28;87938;-50
2022/03/26 08:56:39;;;;;;;;;;;8.30;52.80;;;;;;5006712;28;88543;-53
2022/03/26 08:59:05;;;;;;;;;;;8.30;52.80;;;;;;5010265;28;86750;-52
2022/03/26 09:01:31;;;;;;;;;;;8.30;53.50;;;;;;5007551;28;86720;-50
2022/03/26 09:03:57;;;;;;;;;;;8.30;52.90;;;;;;5007110;28;86912;-52
2022/03/26 09:06:22;;;;;;;;;;;8.30;52.90;;;;;;5007067;28;88036;-50
2022/03/26 09:08:48;;;;;;;;;;;8.30;52.90;;;;;;5016307;28;88387;-50
2022/03/26 09:11:14;;;;;;;;;;;8.30;52.90;;;;;;5025673;28;86868;-50
2022/03/26 09:13:40;;;;;;;;;;;8.40;52.90;;;;;;5026923;28;88255;-50
2022/03/26 09:16:05;;;;;;;;;;;8.30;52.90;;;;;;5026520;28;88378;-50
2022/03/26 09:18:31;;;;;;;;;;;8.30;53.00;;;;;;5027144;28;87049;-52
2022/03/26 09:20:57;;;;;;;;;;;8.40;53.00;;;;;;5029462;28;87818;-52
2022/03/26 09:23:23;;;;;;;;;;;8.40;52.90;;;;;;5026931;28;86842;-50
2022/03/26 09:25:48;;;;;;;;;;;8.40;52.90;;;;;;5027294;28;87802;-50
2022/03/26 09:28:14;;;;;;;;;;;8.40;52.90;;;;;;5025060;28;88466;-50
2022/03/26 09:30:40;;;;;;;;;;;8.40;52.90;;;;;;5026589;28;86853;-49
2022/03/26 09:33:06;;;;;;;;;;;8.40;52.90;;;;;;5026139;28;87997;-52
2022/03/26 09:35:32;;;;;;;;;;;8.40;52.80;;;;;;5026338;28;87647;-51
2022/03/26 09:37:57;;;;;;;;;;;8.40;52.90;;;;;;5026632;28;86847;-50
2022/03/26 09:40:24;;;;;;;;;;;8.50;52.90;;;;;;5025681;28;87898;-52
2022/03/26 09:42:50;;;;;;;;;;;8.40;52.90;;;;;;5028855;28;87306;-52
2022/03/26 09:45:15;;;;;;;;;;;8.40;53.00;;;;;;5026506;28;86980;-50
2022/03/26 09:47:41;;;;;;;;;;;8.50;52.90;;;;;;5025461;28;88518;-52
2022/03/26 09:50:09;;;;;;;;;;;8.50;52.80;;;;;;5027179;28;86397;-50
2022/03/26 09:52:36;;;;;;;;;;;8.50;52.70;;;;;;5026231;28;87128;-50
2022/03/26 09:55:02;;;;;;;;;;;8.50;52.70;;;;;;5024879;28;87720;-52
2022/03/26 09:57:29;;;;;;;;;;;8.50;53.50;;;;;;5025920;28;87802;-52
2022/03/26 09:59:55;;;;;;;;;;;8.50;52.80;;;;;;5026365;28;88981;-50
2022/03/26 10:02:21;;;;;;;;;;;8.50;52.90;;;;;;5025901;28;87667;-49
2022/03/26 10:04:47;;;;;;;;;;;8.50;52.90;;;;;;5029495;28;87063;-52
2022/03/26 10:07:13;;;;;;;;;;;8.50;52.90;;;;;;5025875;28;88611;-50
2022/03/26 10:09:44;;;;;;;;;;;8.60;52.90;;;;;;5026302;28;87032;-49
2022/03/26 10:12:12;;;;;;;;;;;8.60;52.90;;;;;;5026059;28;87933;-50
2022/03/26 10:14:52;;;;;;;;;;;8.60;52.90;;;;;;5026331;28;87694;-51
2022/03/26 10:17:22;;;;;;;;;;;8.60;52.90;;;;;;5026101;28;87063;-49
2022/03/26 10:19:51;;;;;;;;;;;8.60;53.10;;;;;;5026134;28;86977;-50
2022/03/26 10:22:26;;;;;;;;;;;8.60;53.00;;;;;;5025047;28;89525;-50
2022/03/26 10:24:52;;;;;;;;;;;8.60;52.90;;;;;;5026049;28;86851;-53
2022/03/26 10:27:18;;;;;;;;;;;8.70;52.90;;;;;;5027362;28;87968;-52
2022/03/26 10:29:48;;;;;;;;;;;8.70;53.00;;;;;;5026061;28;86873;-52
2022/03/26 10:32:39;;;;;;;;;;;8.70;53.10;;;;;;5025951;28;88355;-55
2022/03/26 10:35:24;;;;;;;;;;;8.70;53.10;;;;;;5025605;28;87761;-51
2022/03/26 10:37:56;;;;;;;;;;;8.70;53.10;;;;;;5025783;28;86884;-52
2022/03/26 10:40:27;;;;;;;;;;;8.80;53.10;;;;;;5026397;28;87848;-52
2022/03/26 10:43:00;;;;;;;;;;;8.80;53.20;;;;;;5025438;28;88412;-52
2022/03/26 10:45:27;;;;;;;;;;;8.80;53.10;;;;;;5024956;28;87029;-52
2022/03/26 10:47:54;;;;;;;;;;;8.80;53.00;;;;;;5027946;28;88053;-51
2022/03/26 10:50:19;;;;;;;;;;;8.80;53.10;;;;;;5025960;28;86854;-51
2022/03/26 10:52:45;;;;;;;;;;;8.90;53.10;;;;;;5025692;28;87888;-52
2022/03/26 10:55:14;;;;;;;;;;;8.90;53.10;;;;;;5025599;28;88414;-51
2022/03/26 10:57:46;;;;;;;;;;;8.90;53.10;;;;;;5029066;28;86871;-51
2022/03/26 11:00:15;;;;;;;;;;;8.90;53.10;;;;;;5029138;28;87696;-51
2022/03/26 11:02:43;;;;;;;;;;;8.90;53.10;;;;;;5027991;28;87219;-52
2022/03/26 11:05:10;;;;;;;;;;;8.90;53.10;;;;;;5029489;28;86116;-52
2022/03/26 11:07:36;;;;;;;;;;;9.00;53.10;;;;;;5028800;28;87201;-52
2022/03/26 11:10:05;;;;;;;;;;;9.00;53.10;;;;;;5031382;28;88712;-53
2022/03/26 11:12:32;;;;;;;;;;;9.00;53.10;;;;;;5027405;28;87838;-51
2022/03/26 11:14:59;;;;;;;;;;;9.10;53.10;;;;;;5028458;28;88537;-53
2022/03/26 11:17:25;;;;;;;;;;;9.10;53.00;;;;;;5027600;28;87012;-51
2022/03/26 11:19:57;;;;;;;;;;;9.10;53.10;;;;;;5028854;28;87904;-51
2022/03/26 11:22:31;;;;;;;;;;;9.10;53.00;;;;;;5028675;28;87445;-52
2022/03/26 11:25:01;;;;;;;;;;;9.10;53.10;;;;;;5028670;28;86861;-52
2022/03/26 11:27:34;;;;;;;;;;;9.10;53.20;;;;;;5028695;28;87872;-51
2022/03/26 11:30:09;;;;;;;;;;;9.20;53.30;;;;;;5028942;28;86783;-52
2022/03/26 11:32:36;;;;;;;;;;;9.20;53.20;;;;;;5031525;28;87040;-52
2022/03/26 11:35:08;;;;;;;;;;;9.20;53.10;;;;;;5010285;28;87725;-52
2022/03/26 11:37:33;;;;;;;;;;;9.20;53.10;;;;;;5027756;28;87850;-52
2022/03/26 11:39:59;;;;;;;;;;;9.30;52.80;;;;;;5028513;28;88619;-52
2022/03/26 11:42:31;;;;;;;;;;;9.30;53.10;;;;;;5028359;28;86878;-52
2022/03/26 11:50:42;;;;;;;;;;;9.40;53.10;;;;;;5028150;28;86954;-52
2022/03/26 11:53:09;;;;;;;;;;;9.40;53.10;;;;;;5028330;28;87097;-52
2022/03/26 11:55:42;;;;;;;;;;;9.40;53.10;;;;;;5031242;28;87901;-53
2022/03/26 11:58:17;;;;;;;;;;;9.40;53.20;;;;;;5028087;28;86843;-51
2022/03/26 12:00:53;;;;;;;;;;;9.50;53.00;;;;;;5026868;28;87971;-52
2022/03/26 12:03:23;;;;;;;;;;;9.40;52.90;;;;;;5026291;28;89417;-52
2022/03/26 12:08:39;;;;;;;;;;;9.50;53.00;;;;;;5028149;28;87070;-52
2022/03/26 12:11:04;;;;;;;;;;;9.60;52.90;;;;;;5027483;28;88283;-52
2022/03/26 12:13:34;;;;;;;;;;;9.60;52.70;;;;;;5027485;28;87035;-52
2022/03/26 12:16:00;;;;;;;;;;;9.60;52.70;;;;;;5027639;28;87898;-54
2022/03/26 12:18:34;;;;;;;;;;;9.70;52.80;;;;;;5030437;28;88591;-52
2022/03/26 12:21:07;;;;;;;;;;;9.60;52.80;;;;;;5028323;28;87804;-52
2022/03/26 12:23:34;;;;;;;;;;;9.70;52.90;;;;;;5027487;28;87393;-52
2022/03/26 12:26:01;;;;;;;;;;;9.70;52.80;;;;;;5027429;28;86853;-56
2022/03/26 12:28:37;;;;;;;;;;;9.80;48.40;;;;;;5025929;28;88183;-54
2022/03/26 12:31:13;;;;;;;;;;;10.00;49.60;;;;;;5027175;28;87855;-53
2022/03/26 12:33:43;;;;;;;;;;;10.20;46.90;;;;;;5027737;28;86840;-54
2022/03/26 12:36:09;;;;;;;;;;;10.10;48.90;;;;;;5027693;28;87903;-51
2022/03/26 12:38:35;;;;;;;;;;;10.10;49.50;;;;;;5027477;28;86833;-52
2022/03/26 12:41:02;;;;;;;;;;;10.30;45.00;;;;;;5029694;28;86922;-54
2022/03/26 12:43:28;;;;;;;;;;;10.50;43.80;;;;;;5027086;28;87633;-52
2022/03/26 12:45:54;;;;;;;;;;;10.50;44.10;;;;;;5028226;28;86213;-55
2022/03/26 12:48:23;;;;;;;;;;;10.60;44.10;;;;;;5027459;28;86855;-55
2022/03/26 12:50:50;;;;;;;;;;;10.80;42.70;;;;;;5026878;28;87618;-56
2022/03/26 12:53:17;;;;;;;;;;;10.90;42.70;;;;;;5026681;28;87800;-57
2022/03/26 12:55:43;;;;;;;;;;;10.90;42.70;;;;;;5027226;28;88880;-58
2022/03/26 13:01:04;;;;;;;;;;;11.00;42.20;;;;;;5027236;28;86867;-64
2022/03/26 13:03:30;;;;;;;;;;;11.10;40.90;;;;;;5027155;28;87385;-55
2022/03/26 13:05:56;;;;;;;;;;;11.30;42.00;;;;;;5027109;28;86847;-51
2022/03/26 13:08:21;;;;;;;;;;;11.40;40.80;;;;;;5027010;28;86861;-54
2022/03/26 13:10:47;;;;;;;;;;;11.40;42.30;;;;;;5027100;28;87828;-57
2022/03/26 13:13:13;;;;;;;;;;;11.30;40.30;;;;;;5027510;28;87144;-58
2022/03/26 13:15:38;;;;;;;;;;;11.30;40.70;;;;;;5027331;28;86871;-58
2022/03/26 13:18:06;;;;;;;;;;;11.30;39.80;;;;;;5025309;28;87830;-56
2022/03/26 13:20:32;;;;;;;;;;;11.40;39.20;;;;;;5027040;28;86869;-55
2022/03/26 13:23:00;;;;;;;;;;;11.40;39.40;;;;;;5028365;28;87753;-57
2022/03/26 13:25:30;;;;;;;;;;;11.40;40.10;;;;;;5027146;28;87083;-56
2022/03/26 13:28:11;;;;;;;;;;;11.40;39.30;;;;;;5026834;28;87863;-59
2022/03/26 13:30:37;;;;;;;;;;;11.50;39.30;;;;;;5026772;28;86926;-57
2022/03/26 13:33:04;;;;;;;;;;;11.50;38.60;;;;;;5026928;28;86991;-58
2022/03/26 13:35:32;;;;;;;;;;;11.50;37.30;;;;;;5027092;28;88018;-61
2022/03/26 13:38:07;;;;;;;;;;;11.50;38.30;;;;;;5026438;28;87501;-57
2022/03/26 13:40:33;;;;;;;;;;;11.70;40.10;;;;;;5025772;28;87152;-53
2022/03/26 13:43:00;;;;;;;;;;;11.80;39.10;;;;;;5026097;28;88221;-52
2022/03/26 13:45:26;;;;;;;;;;;11.80;39.00;;;;;;5029078;28;88345;-59
2022/03/26 13:47:54;;;;;;;;;;;11.90;37.50;;;;;;5026583;28;88636;-57
2022/03/26 13:50:20;;;;;;;;;;;12.00;37.10;;;;;;5026374;28;87527;-54
2022/03/26 13:52:47;;;;;;;;;;;12.10;37.00;;;;;;5026449;28;86858;-54
2022/03/26 13:55:30;;;;;;;;;;;12.10;37.50;;;;;;5026490;28;87822;-52
2022/03/26 13:57:57;;;;;;;;;;;12.00;37.40;;;;;;5025998;28;88445;-59
2022/03/26 14:00:24;;;;;;;;;;;12.10;37.80;;;;;;5026833;28;86098;-55
2022/03/26 14:02:50;;;;;;;;;;;12.20;38.90;;;;;;5025842;28;86894;-58
2022/03/26 14:05:34;;;;;;;;;;;12.20;38.70;;;;;;5026079;28;87449;-52
2022/03/26 14:08:04;;;;;;;;;;;12.20;39.00;;;;;;5028304;28;87789;-52
2022/03/26 14:10:32;;;;;;;;;;;12.10;40.00;;;;;;5025745;28;88630;-56
2022/03/26 14:12:59;;;;;;;;;;;12.10;40.40;;;;;;5026420;28;86877;-55
2022/03/26 14:15:26;;;;;;;;;;;12.10;40.90;;;;;;5026111;28;87049;-53
2022/03/26 14:17:52;;;;;;;;;;;12.20;41.40;;;;;;5025705;28;88477;-54
2022/03/26 14:20:18;;;;;;;;;;;12.20;41.80;;;;;;5026104;28;87185;-53
2022/03/26 14:22:43;;;;;;;;;;;12.20;41.80;;;;;;5026372;28;86868;-55
2022/03/26 14:25:09;;;;;;;;;;;12.20;42.20;;;;;;5026310;28;86156;-55
2022/03/26 14:27:34;;;;;;;;;;;12.20;42.40;;;;;;5026029;28;86826;-52
2022/03/26 14:30:00;;;;;;;;;;;12.20;42.80;;;;;;5030275;28;86882;-55
2022/03/26 14:32:26;;;;;;;;;;;12.20;43.20;;;;;;5029153;28;88016;-53
2022/03/26 14:34:51;;;;;;;;;;;12.20;43.10;;;;;;5029800;28;86856;-52